Time;durP1;ratioP1;P1;durP2;ratioP2;P2;SDS_P1;SDS_P2;PMS_P1;PMS_P2;Temp;Humidity;BMP_temperature;BMP_pressure;BME280_temperature;BME280_humidity;BME280_pressure;Samples;Min_cycle;Max_cycle;Signal;HPM_P1;HPM_P2
2022/01/10 00:00:08;;;;;;;18.52;5.85;;;2.70;99.90;;;;;;5077842;28;20327;-67
2022/01/10 00:02:35;;;;;;;20.35;5.60;;;2.60;99.90;;;;;;5083780;28;20517;-67
2022/01/10 00:05:02;;;;;;;21.75;7.30;;;2.70;99.90;;;;;;5075698;28;20280;-67
2022/01/10 00:07:29;;;;;;;13.65;4.63;;;2.70;99.90;;;;;;5080931;28;20093;-67
2022/01/10 00:09:55;;;;;;;15.38;5.75;;;2.70;99.90;;;;;;5080615;28;20055;-67
2022/01/10 00:12:20;;;;;;;13.75;5.53;;;2.70;99.90;;;;;;5079708;28;20062;-67
2022/01/10 00:14:46;;;;;;;15.25;5.10;;;2.70;99.90;;;;;;5080043;28;20688;-66
2022/01/10 00:17:14;;;;;;;13.50;5.15;;;2.60;99.90;;;;;;5078218;28;20046;-67
2022/01/10 00:19:40;;;;;;;15.38;5.30;;;2.60;99.90;;;;;;5077347;28;20040;-67
2022/01/10 00:22:08;;;;;;;14.05;5.60;;;2.60;99.90;;;;;;5082087;28;20032;-67
2022/01/10 00:24:34;;;;;;;13.00;5.70;;;2.60;99.90;;;;;;5076045;28;20486;-67
2022/01/10 00:27:00;;;;;;;10.10;5.55;;;2.60;99.90;;;;;;5082845;28;20071;-67
2022/01/10 00:29:25;;;;;;;9.63;4.75;;;2.60;99.90;;;;;;5058202;28;20048;-67
2022/01/10 00:31:51;;;;;;;15.88;5.00;;;2.50;99.90;;;;;;5081563;28;20044;-67
2022/01/10 00:34:17;;;;;;;13.73;4.18;;;2.50;99.90;;;;;;5079424;28;20036;-67
2022/01/10 00:36:44;;;;;;;13.73;4.95;;;2.50;99.90;;;;;;5073050;28;20037;-67
2022/01/10 00:39:10;;;;;;;13.30;5.65;;;2.40;99.90;;;;;;5081895;28;20035;-67
2022/01/10 00:41:37;;;;;;;12.20;4.32;;;2.40;99.90;;;;;;5078973;28;20477;-67
2022/01/10 00:44:04;;;;;;;9.57;4.30;;;2.40;99.90;;;;;;5078367;28;20508;-67
2022/01/10 00:46:29;;;;;;;14.13;4.75;;;2.40;99.90;;;;;;5080477;28;20428;-67
2022/01/10 00:48:55;;;;;;;14.30;5.53;;;2.40;99.90;;;;;;5076611;28;21179;-67
2022/01/10 00:51:21;;;;;;;20.40;4.93;;;2.40;99.90;;;;;;5080245;28;20071;-67
2022/01/10 00:53:50;;;;;;;14.27;4.82;;;2.30;99.90;;;;;;5080383;28;20044;-67
2022/01/10 00:56:17;;;;;;;9.15;4.13;;;2.30;99.90;;;;;;5080047;28;20075;-67
2022/01/10 00:58:43;;;;;;;11.85;4.13;;;2.30;99.90;;;;;;5082325;28;20040;-66
2022/01/10 01:01:09;;;;;;;11.68;3.58;;;2.20;99.90;;;;;;5076724;28;20044;-66
2022/01/10 01:03:35;;;;;;;9.70;4.03;;;2.20;99.90;;;;;;5081726;28;20109;-67
2022/01/10 01:06:01;;;;;;;11.43;4.60;;;2.20;99.90;;;;;;5078018;28;20118;-67
2022/01/10 01:08:29;;;;;;;9.18;4.78;;;2.20;99.90;;;;;;5079035;28;20040;-67
2022/01/10 01:11:24;;;;;;;9.27;4.47;;;2.20;99.90;;;;;;5081368;28;20153;-67
2022/01/10 01:16:17;;;;;;;8.85;4.07;;;2.10;99.90;;;;;;5078744;28;20044;-67
2022/01/10 01:24:06;;;;;;;9.52;4.65;;;2.10;99.90;;;;;;5080075;28;20122;-67
2022/01/10 01:26:37;;;;;;;11.00;4.50;;;2.00;99.90;;;;;;5079223;28;20044;-67
2022/01/10 01:29:06;;;;;;;8.02;4.15;;;2.00;99.90;;;;;;5076496;28;20032;-67
2022/01/10 01:31:32;;;;;;;11.32;4.30;;;1.90;99.90;;;;;;5079990;28;20207;-67
2022/01/10 01:33:57;;;;;;;9.15;4.43;;;1.90;99.90;;;;;;5078086;28;20470;-66
2022/01/10 01:36:25;;;;;;;14.18;4.32;;;1.90;99.90;;;;;;5077738;28;20132;-67
2022/01/10 01:38:53;;;;;;;13.35;4.78;;;1.90;99.90;;;;;;5081915;28;20603;-67
2022/01/10 01:43:57;;;;;;;8.95;4.88;;;1.80;99.90;;;;;;5079927;28;20119;-67
2022/01/10 01:46:23;;;;;;;7.93;3.40;;;1.80;99.90;;;;;;5077848;28;20409;-66
2022/01/10 01:48:50;;;;;;;12.63;4.78;;;1.80;99.90;;;;;;5076503;28;20044;-66
2022/01/10 01:51:17;;;;;;;10.13;4.50;;;1.80;99.90;;;;;;5080111;28;20028;-67
2022/01/10 01:53:44;;;;;;;9.57;4.32;;;1.80;99.90;;;;;;5077136;28;20034;-67
2022/01/10 01:56:11;;;;;;;7.13;4.28;;;1.80;99.90;;;;;;5081030;28;20045;-66
2022/01/10 01:58:39;;;;;;;9.52;4.65;;;1.80;99.90;;;;;;5080015;28;20044;-67
2022/01/10 02:01:07;;;;;;;10.65;4.68;;;1.80;99.90;;;;;;5077228;28;20493;-67
2022/01/10 02:03:33;;;;;;;9.38;4.05;;;1.70;99.90;;;;;;5081809;28;20040;-67
2022/01/10 02:06:02;;;;;;;9.30;4.00;;;1.70;99.90;;;;;;5076440;28;20063;-67
2022/01/10 02:08:28;;;;;;;12.82;5.28;;;1.70;99.90;;;;;;5077588;28;20155;-67
2022/01/10 02:10:54;;;;;;;9.75;4.90;;;1.70;99.90;;;;;;5079672;28;20063;-67
2022/01/10 02:13:20;;;;;;;12.10;4.47;;;1.70;99.90;;;;;;5074225;28;20040;-67
2022/01/10 02:15:56;;;;;;;9.45;5.53;;;1.70;99.90;;;;;;5079422;28;20051;-67
2022/01/10 02:18:22;;;;;;;12.30;5.50;;;1.70;99.90;;;;;;5076226;28;20119;-66
2022/01/10 02:20:48;;;;;;;8.57;4.15;;;1.60;99.90;;;;;;5077978;28;20040;-66
2022/01/10 02:23:15;;;;;;;11.52;3.80;;;1.60;99.90;;;;;;5080908;28;20685;-67
2022/01/10 02:25:42;;;;;;;11.60;5.00;;;1.60;99.90;;;;;;5075624;28;20048;-67
2022/01/10 02:28:07;;;;;;;10.43;5.57;;;1.60;99.90;;;;;;5079880;28;20195;-66
2022/01/10 02:30:34;;;;;;;14.50;6.45;;;1.50;99.90;;;;;;5077222;28;20123;-67
2022/01/10 02:33:01;;;;;;;15.65;7.75;;;1.50;99.90;;;;;;5075980;28;20060;-67
2022/01/10 02:35:27;;;;;;;14.45;6.95;;;1.60;99.90;;;;;;5078859;28;20464;-67
2022/01/10 02:37:55;;;;;;;18.88;7.15;;;1.60;99.90;;;;;;5077605;28;20047;-67
2022/01/10 02:40:23;;;;;;;15.95;6.53;;;1.60;99.90;;;;;;5080713;28;20163;-66
2022/01/10 02:42:50;;;;;;;18.77;6.82;;;1.60;99.90;;;;;;5078714;28;20493;-66
2022/01/10 02:45:17;;;;;;;11.52;5.47;;;1.60;99.90;;;;;;5078056;28;20405;-67
2022/01/10 02:47:43;;;;;;;15.98;6.38;;;1.60;99.90;;;;;;5078775;28;20455;-66
2022/01/10 02:50:09;;;;;;;10.48;6.20;;;1.70;99.90;;;;;;5074446;28;20020;-67
2022/01/10 02:52:36;;;;;;;16.88;6.32;;;1.70;99.90;;;;;;5061213;28;20418;-67
2022/01/10 02:55:02;;;;;;;20.35;7.35;;;1.70;99.90;;;;;;5078711;28;20119;-66
2022/01/10 02:57:29;;;;;;;13.45;6.25;;;1.70;99.90;;;;;;5075899;28;20197;-67
2022/01/10 02:59:55;;;;;;;15.73;6.05;;;1.80;99.90;;;;;;5078684;28;20052;-67
2022/01/10 03:02:25;;;;;;;11.02;6.35;;;1.80;99.90;;;;;;5077575;28;20032;-67
2022/01/10 03:04:51;;;;;;;16.60;7.13;;;1.80;99.90;;;;;;5079189;28;20040;-67
2022/01/10 03:07:18;;;;;;;16.55;6.93;;;1.80;99.90;;;;;;5084033;28;20032;-67
2022/01/10 03:09:44;;;;;;;13.90;6.97;;;1.80;99.90;;;;;;5079586;28;20507;-67
2022/01/10 03:12:10;;;;;;;14.23;7.10;;;1.80;99.90;;;;;;5084428;28;20035;-66
2022/01/10 03:14:37;;;;;;;15.20;7.22;;;1.70;99.90;;;;;;5075527;28;20070;-66
2022/01/10 03:17:03;;;;;;;16.83;7.18;;;1.80;99.90;;;;;;5080668;28;20036;-67
2022/01/10 03:19:29;;;;;;;12.82;6.60;;;1.80;99.90;;;;;;5079180;28;20443;-67
2022/01/10 03:21:55;;;;;;;17.65;8.35;;;1.80;99.90;;;;;;5079665;28;20024;-67
2022/01/10 03:24:20;;;;;;;11.13;6.10;;;1.80;99.90;;;;;;5084652;28;20077;-67
2022/01/10 03:26:46;;;;;;;12.13;7.43;;;1.80;99.90;;;;;;5081040;28;20040;-67
2022/01/10 03:29:12;;;;;;;15.95;7.88;;;1.80;99.90;;;;;;5080661;28;20039;-66
2022/01/10 03:31:38;;;;;;;12.18;7.25;;;1.80;99.90;;;;;;5082458;28;20032;-67
2022/01/10 03:34:06;;;;;;;17.45;7.57;;;1.80;99.90;;;;;;5075223;28;20045;-66
2022/01/10 03:36:32;;;;;;;21.77;8.68;;;1.80;99.90;;;;;;5083746;28;20052;-67
2022/01/10 03:38:58;;;;;;;13.15;7.22;;;1.80;99.90;;;;;;5081578;28;20548;-67
2022/01/10 03:41:24;;;;;;;15.73;6.65;;;1.80;99.90;;;;;;5082042;28;20119;-67
2022/01/10 03:43:50;;;;;;;16.85;6.95;;;1.80;99.90;;;;;;5082655;28;20397;-67
2022/01/10 03:46:16;;;;;;;22.77;8.75;;;1.80;99.90;;;;;;5077602;28;20437;-66
2022/01/10 03:48:41;;;;;;;16.40;7.15;;;1.80;99.90;;;;;;5083495;28;20044;-67
2022/01/10 03:51:07;;;;;;;14.55;7.68;;;1.80;99.90;;;;;;5080002;28;20040;-67
2022/01/10 03:53:33;;;;;;;15.30;8.45;;;1.80;99.90;;;;;;5079518;28;20103;-67
2022/01/10 03:55:59;;;;;;;16.88;7.78;;;1.70;99.90;;;;;;5082731;28;20420;-67
2022/01/10 03:58:25;;;;;;;17.63;7.45;;;1.70;99.90;;;;;;5078133;28;20044;-67
2022/01/10 04:00:51;;;;;;;19.02;7.68;;;1.70;99.90;;;;;;5080180;28;20036;-67
2022/01/10 04:03:17;;;;;;;22.38;8.02;;;1.70;99.90;;;;;;5081523;28;20105;-67
2022/01/10 04:05:42;;;;;;;18.17;9.68;;;1.70;99.90;;;;;;5080941;28;20087;-67
2022/01/10 04:08:08;;;;;;;19.38;8.75;;;1.70;99.90;;;;;;5082748;28;20577;-67
2022/01/10 04:10:34;;;;;;;14.75;8.65;;;1.70;99.90;;;;;;5077292;28;20060;-67
2022/01/10 04:13:00;;;;;;;18.48;9.63;;;1.70;99.90;;;;;;5082626;28;20043;-67
2022/01/10 04:15:26;;;;;;;17.70;10.50;;;1.70;99.90;;;;;;5076666;28;20070;-67
2022/01/10 04:17:56;;;;;;;16.70;9.77;;;1.70;99.90;;;;;;5081648;28;20040;-67
2022/01/10 04:20:24;;;;;;;15.73;10.20;;;1.80;99.90;;;;;;5081780;28;20036;-67
2022/01/10 04:22:50;;;;;;;21.83;9.80;;;1.70;99.90;;;;;;5078482;28;20035;-67
2022/01/10 04:25:16;;;;;;;15.30;10.07;;;1.70;99.90;;;;;;5081498;28;20040;-67
2022/01/10 04:27:41;;;;;;;17.33;10.13;;;1.70;99.90;;;;;;5080689;28;20040;-67
2022/01/10 04:30:08;;;;;;;19.42;9.00;;;1.70;99.90;;;;;;5060742;28;20391;-67
2022/01/10 04:32:34;;;;;;;24.35;10.20;;;1.70;99.90;;;;;;5082036;28;20683;-67
2022/01/10 04:35:00;;;;;;;20.55;10.63;;;1.70;99.90;;;;;;5075426;28;20471;-67
2022/01/10 04:37:26;;;;;;;40.92;12.27;;;1.70;99.90;;;;;;5081444;28;20040;-67
2022/01/10 04:39:52;;;;;;;74.57;14.13;;;1.70;99.90;;;;;;5079422;28;20308;-67
2022/01/10 04:42:17;;;;;;;54.80;12.63;;;1.70;99.90;;;;;;5079727;28;20036;-67
2022/01/10 04:44:43;;;;;;;31.50;10.60;;;1.70;99.90;;;;;;5080774;28;20440;-67
2022/01/10 04:47:09;;;;;;;110.68;18.10;;;1.70;99.90;;;;;;5078756;28;20398;-67
2022/01/10 04:50:02;;;;;;;44.95;11.50;;;1.70;99.90;;;;;;5080973;28;20114;-67
2022/01/10 04:52:21;;;;;;;22.80;9.60;;;1.70;99.90;;;;;;5080078;28;20058;-67
2022/01/10 04:54:47;;;;;;;19.33;9.18;;;1.60;99.90;;;;;;5075683;28;20036;-67
2022/01/10 04:57:13;;;;;;;65.30;11.82;;;1.70;99.90;;;;;;5082343;28;20040;-67
2022/01/10 04:59:39;;;;;;;33.42;10.65;;;1.60;99.90;;;;;;5076790;28;20048;-67
2022/01/10 05:02:05;;;;;;;24.38;10.20;;;1.60;99.90;;;;;;5080651;28;20039;-67
2022/01/10 05:04:30;;;;;;;30.27;9.60;;;1.60;99.90;;;;;;5080313;28;20183;-67
2022/01/10 05:06:56;;;;;;;22.67;10.63;;;1.50;99.90;;;;;;5078188;28;20111;-67
2022/01/10 05:09:23;;;;;;;40.95;11.07;;;1.50;99.90;;;;;;5082423;28;20527;-67
2022/01/10 05:11:48;;;;;;;24.60;11.10;;;1.50;99.90;;;;;;5079261;28;20081;-67
2022/01/10 05:14:15;;;;;;;40.80;11.65;;;1.50;99.90;;;;;;5070544;28;20044;-67
2022/01/10 05:16:41;;;;;;;27.83;10.25;;;1.50;99.90;;;;;;5060108;28;20079;-67
2022/01/10 05:19:07;;;;;;;39.83;10.00;;;1.50;99.90;;;;;;5073042;28;20077;-67
2022/01/10 05:21:33;;;;;;;12.80;7.85;;;1.40;99.90;;;;;;5079017;28;20115;-67
2022/01/10 05:23:59;;;;;;;25.40;10.07;;;1.40;99.90;;;;;;5075917;28;20039;-67
2022/01/10 05:26:25;;;;;;;41.28;10.95;;;1.40;99.90;;;;;;5076175;28;20036;-67
2022/01/10 05:28:57;;;;;;;20.13;9.68;;;1.40;99.90;;;;;;5076232;28;20044;-67
2022/01/10 05:31:23;;;;;;;29.75;9.88;;;1.40;99.90;;;;;;5072560;28;20033;-67
2022/01/10 05:33:49;;;;;;;20.58;9.80;;;1.40;99.90;;;;;;5080749;28;20039;-67
2022/01/10 05:36:16;;;;;;;14.88;11.18;;;1.40;99.90;;;;;;5078127;28;20072;-67
2022/01/10 05:38:42;;;;;;;20.05;10.98;;;1.40;99.90;;;;;;5078042;28;20079;-67
2022/01/10 05:41:08;;;;;;;31.17;12.68;;;1.40;99.90;;;;;;5077454;28;20080;-67
2022/01/10 05:43:34;;;;;;;34.78;12.27;;;1.40;99.90;;;;;;5075402;28;20039;-67
2022/01/10 05:46:00;;;;;;;19.60;10.98;;;1.40;99.90;;;;;;5079713;28;20044;-67
2022/01/10 05:48:29;;;;;;;23.45;11.80;;;1.40;99.90;;;;;;5078295;28;20036;-67
2022/01/10 05:50:55;;;;;;;36.95;13.60;;;1.40;99.90;;;;;;5077931;28;20117;-67
2022/01/10 05:53:21;;;;;;;37.03;12.82;;;1.40;99.90;;;;;;5080944;28;20497;-67
2022/01/10 05:55:47;;;;;;;138.75;18.70;;;1.40;99.90;;;;;;5075786;28;20150;-67
2022/01/10 05:58:13;;;;;;;110.50;18.40;;;1.50;99.90;;;;;;5080872;28;20464;-67
2022/01/10 06:00:39;;;;;;;32.33;13.13;;;1.50;99.90;;;;;;5075872;28;20121;-67
2022/01/10 06:03:05;;;;;;;37.00;13.38;;;1.50;99.90;;;;;;5077905;28;20039;-67
2022/01/10 06:05:31;;;;;;;54.83;14.70;;;1.50;99.90;;;;;;5078285;28;20536;-67
2022/01/10 06:08:02;;;;;;;53.35;16.48;;;1.50;99.90;;;;;;5074211;28;20469;-67
2022/01/10 06:10:29;;;;;;;90.35;17.83;;;1.50;99.90;;;;;;5080203;28;20064;-67
2022/01/10 06:12:56;;;;;;;32.45;13.80;;;1.50;99.90;;;;;;5078633;28;20036;-67
2022/01/10 06:15:22;;;;;;;86.05;16.70;;;1.50;99.90;;;;;;5077659;28;20043;-67
2022/01/10 06:17:49;;;;;;;113.85;17.85;;;1.40;99.90;;;;;;5083700;28;20044;-67
2022/01/10 06:20:16;;;;;;;32.22;13.90;;;1.50;99.90;;;;;;5076384;28;20050;-67
2022/01/10 06:22:42;;;;;;;46.58;14.10;;;1.50;99.90;;;;;;5062140;28;20055;-67
2022/01/10 06:25:11;;;;;;;61.40;15.68;;;1.40;99.90;;;;;;5077402;28;20485;-67
2022/01/10 06:27:37;;;;;;;37.40;13.13;;;1.40;99.90;;;;;;5076301;28;20378;-67
2022/01/10 06:30:04;;;;;;;86.80;15.75;;;1.40;99.90;;;;;;5079712;28;20036;-67
2022/01/10 06:32:29;;;;;;;72.38;15.68;;;1.40;99.90;;;;;;5073414;28;20485;-67
2022/01/10 06:34:57;;;;;;;53.00;15.57;;;1.30;99.90;;;;;;5079069;28;20035;-67
2022/01/10 06:37:23;;;;;;;68.47;17.85;;;1.30;99.90;;;;;;5078981;28;20043;-67
2022/01/10 06:39:49;;;;;;;29.15;12.50;;;1.30;99.90;;;;;;5078004;28;20047;-67
2022/01/10 06:42:15;;;;;;;20.77;12.23;;;1.20;99.90;;;;;;5084205;28;20043;-67
2022/01/10 06:44:41;;;;;;;22.23;12.45;;;1.30;99.90;;;;;;5079443;28;20071;-67
2022/01/10 06:47:07;;;;;;;22.23;12.35;;;1.30;99.90;;;;;;5081821;28;20043;-67
2022/01/10 06:49:33;;;;;;;27.50;13.45;;;1.30;99.90;;;;;;5081146;28;20039;-67
2022/01/10 06:51:59;;;;;;;29.40;13.15;;;1.30;99.90;;;;;;5079525;28;20105;-67
2022/01/10 06:54:25;;;;;;;26.38;14.27;;;1.30;99.90;;;;;;5083448;28;20048;-67
2022/01/10 06:56:51;;;;;;;25.08;12.75;;;1.20;99.90;;;;;;5082241;28;20492;-67
2022/01/10 06:59:17;;;;;;;25.00;14.23;;;1.20;99.90;;;;;;5080756;28;20150;-67
2022/01/10 07:01:44;;;;;;;27.02;14.05;;;1.20;99.90;;;;;;5084145;28;20510;-67
2022/01/10 07:04:10;;;;;;;32.15;14.13;;;1.20;99.90;;;;;;5077970;28;20044;-67
2022/01/10 07:06:36;;;;;;;20.17;14.55;;;1.20;99.90;;;;;;5084749;28;20083;-67
2022/01/10 07:09:02;;;;;;;22.77;15.10;;;1.20;99.90;;;;;;5079617;28;20667;-67
2022/01/10 07:11:29;;;;;;;29.30;16.88;;;1.20;99.90;;;;;;5082555;28;20040;-67
2022/01/10 07:13:54;;;;;;;22.25;15.30;;;1.30;99.90;;;;;;5081292;28;20367;-67
2022/01/10 07:16:20;;;;;;;26.13;15.77;;;1.30;99.90;;;;;;5079888;28;20043;-67
2022/01/10 07:18:46;;;;;;;29.40;16.20;;;1.30;99.90;;;;;;5078494;28;20232;-67
2022/01/10 07:21:12;;;;;;;26.95;15.50;;;1.30;99.90;;;;;;5079773;28;20449;-67
2022/01/10 07:23:38;;;;;;;27.73;16.20;;;1.30;99.90;;;;;;5081625;28;20346;-67
2022/01/10 07:26:04;;;;;;;25.30;15.30;;;1.30;99.90;;;;;;5080901;28;20119;-68
2022/01/10 07:28:30;;;;;;;24.40;15.18;;;1.30;99.90;;;;;;5079156;28;20040;-67
2022/01/10 07:30:56;;;;;;;27.05;15.60;;;1.30;99.90;;;;;;5080395;28;20100;-67
2022/01/10 07:33:21;;;;;;;26.45;18.15;;;1.40;99.90;;;;;;5081588;28;20184;-67
2022/01/10 07:35:47;;;;;;;30.88;16.42;;;1.40;99.90;;;;;;5066778;28;20028;-67
2022/01/10 07:38:13;;;;;;;27.73;17.50;;;1.40;99.90;;;;;;5080211;28;20047;-67
2022/01/10 07:40:39;;;;;;;25.08;16.35;;;1.40;99.90;;;;;;5078805;28;20158;-67
2022/01/10 07:43:04;;;;;;;29.60;17.15;;;1.40;99.90;;;;;;5082392;28;20055;-67
2022/01/10 07:45:30;;;;;;;28.70;16.63;;;1.40;99.90;;;;;;5079093;28;20163;-67
2022/01/10 07:47:56;;;;;;;26.35;17.20;;;1.40;99.90;;;;;;5079058;28;20032;-67
2022/01/10 07:50:22;;;;;;;27.15;15.88;;;1.40;99.90;;;;;;5080696;28;20032;-67
2022/01/10 07:52:48;;;;;;;24.30;15.27;;;1.40;99.90;;;;;;5076161;28;20028;-67
2022/01/10 07:55:14;;;;;;;24.38;16.35;;;1.30;99.90;;;;;;5078274;28;20421;-67
2022/01/10 07:57:40;;;;;;;31.05;16.85;;;1.40;99.90;;;;;;5080437;28;20397;-67
2022/01/10 08:00:06;;;;;;;24.85;17.00;;;1.40;99.90;;;;;;5075557;28;20040;-67
2022/01/10 08:02:32;;;;;;;26.88;17.35;;;1.40;99.90;;;;;;5081039;28;20047;-67
2022/01/10 08:04:58;;;;;;;26.65;17.77;;;1.30;99.90;;;;;;5072983;28;20055;-67
2022/01/10 08:07:24;;;;;;;31.63;18.15;;;1.40;99.90;;;;;;5081281;28;20036;-67
2022/01/10 08:09:50;;;;;;;28.00;17.27;;;1.40;99.90;;;;;;5078752;28;20048;-67
2022/01/10 08:12:16;;;;;;;31.80;16.83;;;1.40;99.90;;;;;;5077454;28;20465;-67
2022/01/10 08:14:42;;;;;;;23.75;16.80;;;1.40;99.90;;;;;;5083578;28;20126;-67
2022/01/10 08:17:08;;;;;;;27.17;18.45;;;1.30;99.90;;;;;;5079322;28;20184;-67
2022/01/10 08:19:34;;;;;;;37.90;17.67;;;1.40;99.90;;;;;;5082125;28;20044;-67
2022/01/10 08:22:01;;;;;;;36.03;19.77;;;1.40;99.90;;;;;;5078678;28;20079;-67
2022/01/10 08:24:28;;;;;;;29.98;19.13;;;1.40;99.90;;;;;;5078125;28;20130;-67
2022/01/10 08:26:55;;;;;;;24.80;16.42;;;1.40;99.90;;;;;;5079979;28;20044;-67
2022/01/10 08:29:22;;;;;;;30.33;17.40;;;1.40;99.90;;;;;;5060245;28;20584;-67
2022/01/10 08:31:48;;;;;;;25.35;17.77;;;1.30;99.90;;;;;;5079885;28;20389;-67
2022/01/10 08:34:14;;;;;;;30.98;19.35;;;1.30;99.90;;;;;;5081150;28;20040;-67
2022/01/10 08:36:40;;;;;;;38.47;19.92;;;1.30;99.90;;;;;;5078687;28;20076;-67
2022/01/10 08:39:07;;;;;;;38.45;18.45;;;1.40;99.90;;;;;;5080508;28;20915;-67
2022/01/10 08:41:36;;;;;;;24.75;17.63;;;1.40;99.90;;;;;;5078614;28;20504;-67
2022/01/10 08:44:06;;;;;;;32.03;18.92;;;1.40;99.90;;;;;;5077235;28;20305;-67
2022/01/10 08:46:32;;;;;;;32.28;19.50;;;1.40;99.90;;;;;;5078149;28;20040;-68
2022/01/10 08:48:58;;;;;;;32.40;19.35;;;1.40;99.90;;;;;;5075303;28;20035;-67
2022/01/10 08:51:25;;;;;;;26.88;17.75;;;1.50;99.90;;;;;;5080643;28;20036;-67
2022/01/10 08:53:51;;;;;;;34.17;19.65;;;1.50;99.90;;;;;;5075657;28;20032;-67
2022/01/10 08:56:17;;;;;;;28.73;21.13;;;1.50;99.90;;;;;;5080362;28;20040;-67
2022/01/10 08:58:43;;;;;;;31.52;19.20;;;1.50;99.90;;;;;;5081203;28;20051;-67
2022/01/10 09:01:09;;;;;;;33.53;17.88;;;1.50;99.90;;;;;;5075480;28;20078;-67
2022/01/10 09:03:38;;;;;;;30.85;20.75;;;1.60;99.90;;;;;;5082464;28;20059;-67
2022/01/10 09:06:04;;;;;;;30.20;20.52;;;1.60;99.90;;;;;;5077627;28;20051;-67
2022/01/10 09:08:36;;;;;;;37.28;24.10;;;1.60;99.90;;;;;;5080014;28;20047;-67
2022/01/10 09:11:05;;;;;;;27.55;21.17;;;1.70;99.90;;;;;;5081452;28;20503;-67
2022/01/10 09:13:31;;;;;;;31.70;20.65;;;1.70;99.90;;;;;;5076105;28;20050;-67
2022/01/10 09:15:57;;;;;;;28.48;18.60;;;1.70;99.90;;;;;;5081382;28;20448;-68
2022/01/10 09:18:23;;;;;;;27.67;20.20;;;1.80;99.90;;;;;;5079960;28;20089;-67
2022/01/10 09:20:51;;;;;;;34.75;21.80;;;1.80;99.90;;;;;;5076234;28;20146;-68
2022/01/10 09:23:18;;;;;;;29.65;19.10;;;1.80;99.90;;;;;;5081443;28;20045;-67
2022/01/10 09:25:44;;;;;;;30.55;21.38;;;1.80;99.90;;;;;;5075996;28;20044;-67
2022/01/10 09:28:10;;;;;;;37.78;20.25;;;1.90;99.90;;;;;;5078982;28;20385;-67
2022/01/10 09:30:36;;;;;;;31.63;17.67;;;1.90;99.90;;;;;;5076924;28;20071;-67
2022/01/10 09:33:02;;;;;;;29.67;20.02;;;1.90;99.90;;;;;;5060203;28;20413;-67
2022/01/10 09:35:28;;;;;;;26.52;19.50;;;1.90;99.90;;;;;;5083596;28;20048;-67
2022/01/10 09:37:54;;;;;;;32.63;20.98;;;2.00;99.90;;;;;;5078537;28;20401;-67
2022/01/10 09:40:22;;;;;;;30.10;21.40;;;2.00;99.90;;;;;;5079606;28;20044;-67
2022/01/10 09:42:48;;;;;;;35.67;19.88;;;2.10;99.90;;;;;;5080113;28;20528;-67
2022/01/10 09:45:14;;;;;;;35.30;21.70;;;2.10;99.90;;;;;;5075304;28;20354;-68
2022/01/10 09:47:40;;;;;;;31.50;21.05;;;2.10;99.90;;;;;;5080599;28;20083;-67
2022/01/10 09:50:08;;;;;;;28.05;19.58;;;2.20;99.90;;;;;;5073820;28;20036;-67
2022/01/10 09:52:36;;;;;;;37.92;21.70;;;2.20;99.90;;;;;;5076703;28;20048;-67
2022/01/10 09:55:02;;;;;;;33.47;21.52;;;2.30;99.90;;;;;;5077922;28;20120;-67
2022/01/10 09:57:27;;;;;;;26.50;18.48;;;2.40;99.90;;;;;;5078959;28;20036;-67
2022/01/10 09:59:54;;;;;;;31.35;21.00;;;2.40;99.90;;;;;;5080459;28;20044;-67
2022/01/10 10:02:20;;;;;;;33.45;21.27;;;2.50;99.90;;;;;;5077141;28;20383;-67
2022/01/10 10:04:46;;;;;;;35.53;23.08;;;2.50;99.90;;;;;;5079489;28;20044;-67
2022/01/10 10:07:13;;;;;;;31.65;22.40;;;2.60;99.90;;;;;;5080171;28;20043;-67
2022/01/10 10:09:40;;;;;;;35.13;22.88;;;2.60;99.90;;;;;;5074085;28;20060;-67
2022/01/10 10:12:07;;;;;;;41.60;23.77;;;2.70;99.90;;;;;;5080039;28;20044;-67
2022/01/10 10:14:33;;;;;;;34.88;21.88;;;2.70;99.90;;;;;;5063688;28;20481;-67
2022/01/10 10:17:06;;;;;;;33.95;21.83;;;2.80;99.90;;;;;;5076134;28;20493;-67
2022/01/10 10:19:32;;;;;;;32.15;22.17;;;2.80;99.90;;;;;;5075911;28;20509;-67
2022/01/10 10:21:59;;;;;;;27.98;21.80;;;2.90;99.90;;;;;;5076019;28;20043;-67
2022/01/10 10:24:26;;;;;;;30.08;21.85;;;2.90;99.90;;;;;;5078679;28;20831;-67
2022/01/10 10:26:53;;;;;;;30.55;21.23;;;2.90;99.90;;;;;;5075052;28;20036;-66
2022/01/10 10:29:19;;;;;;;32.55;22.45;;;3.00;99.90;;;;;;5076745;28;20032;-66
2022/01/10 10:31:54;;;;;;;34.15;22.05;;;3.00;99.90;;;;;;5078305;28;20072;-66
2022/01/10 10:34:23;;;;;;;30.70;21.85;;;3.10;99.90;;;;;;5075526;28;20040;-66
2022/01/10 10:37:03;;;;;;;31.58;22.08;;;3.20;99.90;;;;;;5077680;28;20040;-67
2022/01/10 10:39:31;;;;;;;33.67;20.60;;;3.20;99.90;;;;;;5075453;28;20036;-67
2022/01/10 10:42:00;;;;;;;36.30;21.75;;;3.20;99.90;;;;;;5074336;28;20040;-66
2022/01/10 10:44:26;;;;;;;35.92;21.08;;;3.30;99.90;;;;;;5079546;28;20056;-66
2022/01/10 10:46:52;;;;;;;32.55;21.35;;;3.30;99.90;;;;;;5076663;28;20386;-67
2022/01/10 10:49:20;;;;;;;31.73;21.45;;;3.40;99.90;;;;;;5077995;28;20072;-66
2022/01/10 10:51:51;;;;;;;33.72;21.67;;;3.50;99.90;;;;;;5079760;28;20075;-66
2022/01/10 10:54:18;;;;;;;31.27;22.05;;;3.50;99.90;;;;;;5074971;28;20032;-67
2022/01/10 10:56:45;;;;;;;33.88;21.15;;;3.60;99.90;;;;;;5079205;28;20035;-67
2022/01/10 10:59:12;;;;;;;37.55;22.75;;;3.70;99.90;;;;;;5075295;28;20067;-66
2022/01/10 11:01:42;;;;;;;37.70;22.70;;;3.80;99.90;;;;;;5077179;28;20498;-67
2022/01/10 11:04:10;;;;;;;35.72;23.58;;;3.90;99.90;;;;;;5078203;28;20445;-67
2022/01/10 11:06:38;;;;;;;31.98;21.75;;;4.00;99.90;;;;;;5077027;28;20400;-67
2022/01/10 11:09:12;;;;;;;36.42;23.00;;;4.00;99.90;;;;;;5075462;28;20041;-67
2022/01/10 11:11:38;;;;;;;30.17;20.88;;;4.20;99.90;;;;;;5079552;28;20048;-67
2022/01/10 11:14:06;;;;;;;36.78;23.42;;;4.20;99.90;;;;;;5072302;28;20039;-67
2022/01/10 11:16:37;;;;;;;34.05;22.02;;;4.40;99.90;;;;;;5077799;28;20071;-67
2022/01/10 11:19:14;;;;;;;29.45;20.88;;;4.60;99.90;;;;;;5072239;28;20445;-67
2022/01/10 11:21:45;;;;;;;26.92;19.17;;;5.20;99.90;;;;;;5076610;28;20032;-67
2022/01/10 11:24:11;;;;;;;31.23;18.85;;;5.90;99.90;;;;;;5080261;28;20055;-67
2022/01/10 11:26:43;;;;;;;25.65;17.27;;;6.30;99.90;;;;;;5079968;28;20092;-67
2022/01/10 11:29:10;;;;;;;24.90;17.73;;;6.20;99.90;;;;;;5081666;28;20102;-67
2022/01/10 11:31:41;;;;;;;26.55;18.33;;;6.20;99.90;;;;;;5080572;28;20092;-67
2022/01/10 11:34:07;;;;;;;29.63;17.58;;;6.20;99.90;;;;;;5077827;28;20086;-67
2022/01/10 11:36:33;;;;;;;23.75;18.30;;;6.30;99.90;;;;;;5083482;28;20108;-67
2022/01/10 11:39:07;;;;;;;32.10;18.52;;;6.80;99.90;;;;;;5078773;28;20035;-67
2022/01/10 11:41:33;;;;;;;24.17;16.85;;;7.30;99.90;;;;;;5080831;28;20596;-67
2022/01/10 11:44:04;;;;;;;31.90;17.17;;;8.00;99.90;;;;;;5081235;28;20531;-67
2022/01/10 11:46:37;;;;;;;19.85;14.68;;;8.70;99.90;;;;;;5080504;28;20051;-67
2022/01/10 11:49:13;;;;;;;26.83;16.45;;;9.50;99.90;;;;;;5085228;28;20198;-67
2022/01/10 11:51:41;;;;;;;21.58;15.52;;;10.10;99.90;;;;;;5081632;28;20036;-67
2022/01/10 11:54:16;;;;;;;22.92;14.95;;;10.60;99.90;;;;;;5081222;28;20120;-67
2022/01/10 11:56:51;;;;;;;23.38;13.88;;;11.20;99.90;;;;;;5084872;28;20047;-67
2022/01/10 11:59:29;;;;;;;27.08;15.23;;;11.60;99.90;;;;;;5079305;28;20047;-67
2022/01/10 12:02:10;;;;;;;22.23;13.70;;;12.10;99.90;;;;;;5081251;28;20041;-67
2022/01/10 12:04:38;;;;;;;21.33;14.13;;;12.40;99.20;;;;;;5083129;28;20101;-67
2022/01/10 12:07:06;;;;;;;20.73;14.07;;;12.60;99.10;;;;;;5076793;28;20051;-67
2022/01/10 12:09:33;;;;;;;23.13;13.45;;;12.50;97.90;;;;;;5064204;28;20082;-68
2022/01/10 12:12:01;;;;;;;19.92;12.43;;;12.40;96.30;;;;;;5082452;28;20510;-68
2022/01/10 12:14:28;;;;;;;25.83;13.13;;;12.40;94.70;;;;;;5078759;28;20467;-68
2022/01/10 12:16:56;;;;;;;20.25;11.73;;;12.90;93.50;;;;;;5083105;28;20417;-68
2022/01/10 12:19:22;;;;;;;19.33;12.48;;;12.80;90.20;;;;;;5078673;28;20153;-68
2022/01/10 12:21:48;;;;;;;19.42;13.60;;;13.30;90.40;;;;;;5083196;28;20036;-68
2022/01/10 12:24:15;;;;;;;17.92;12.13;;;13.60;88.10;;;;;;5081414;28;20048;-67
2022/01/10 12:26:41;;;;;;;17.67;11.70;;;13.90;86.00;;;;;;5079370;28;20043;-67
2022/01/10 12:29:09;;;;;;;16.33;12.35;;;14.10;83.20;;;;;;5083041;28;20075;-68
2022/01/10 12:31:38;;;;;;;17.77;11.65;;;14.30;81.30;;;;;;5076895;28;20047;-67
2022/01/10 12:34:07;;;;;;;20.58;12.43;;;14.30;79.40;;;;;;5080882;28;20036;-67
2022/01/10 12:36:34;;;;;;;14.30;12.00;;;14.40;78.80;;;;;;5082876;28;20044;-68
2022/01/10 12:39:11;;;;;;;14.45;11.30;;;14.50;78.40;;;;;;5079287;28;20032;-68
2022/01/10 12:41:38;;;;;;;17.70;13.15;;;14.70;76.00;;;;;;5081088;28;20175;-68
2022/01/10 12:44:04;;;;;;;14.77;11.38;;;14.60;75.80;;;;;;5079376;28;20488;-68
2022/01/10 12:46:33;;;;;;;14.90;10.80;;;14.50;75.60;;;;;;5079770;28;20359;-68
2022/01/10 12:49:07;;;;;;;13.20;10.30;;;14.70;75.20;;;;;;5082199;28;20451;-68